createdAt,value
2022-10-01T00:00:34.161Z,12.60
2022-10-01T00:03:07.459Z,12.70
2022-10-01T00:05:38.014Z,12.70
2022-10-01T00:08:08.405Z,12.70
2022-10-01T00:10:40.207Z,12.70
2022-10-01T00:13:10.545Z,12.70
2022-10-01T00:15:42.785Z,12.60
2022-10-01T00:18:15.884Z,12.60
2022-10-01T00:20:46.340Z,12.60
2022-10-01T00:23:19.457Z,12.60
2022-10-01T00:25:52.350Z,12.60
2022-10-01T00:28:22.617Z,12.60
2022-10-01T00:30:52.765Z,12.50
2022-10-01T00:33:25.578Z,12.50
2022-10-01T00:35:57.436Z,12.50
2022-10-01T00:38:28.297Z,12.50
2022-10-01T00:40:58.704Z,12.50
2022-10-01T00:43:31.953Z,12.50
2022-10-01T00:46:06.483Z,12.40
2022-10-01T00:48:47.803Z,12.30
2022-10-01T00:51:18.159Z,12.30
2022-10-01T00:53:48.805Z,12.30
2022-10-01T00:56:19.075Z,12.40
2022-10-01T00:58:54.401Z,12.40
2022-10-01T01:01:24.812Z,12.50
2022-10-01T01:03:59.604Z,12.40
2022-10-01T01:06:29.761Z,12.40
2022-10-01T01:09:03.608Z,12.40
2022-10-01T01:11:41.302Z,12.40
2022-10-01T01:14:17.435Z,12.40
2022-10-01T01:16:53.443Z,12.40
2022-10-01T01:19:38.134Z,12.40
2022-10-01T01:22:10.969Z,12.40
2022-10-01T01:24:52.476Z,12.40
2022-10-01T01:27:40.144Z,12.40
2022-10-01T01:30:18.392Z,12.40
2022-10-01T01:32:53.554Z,12.50
2022-10-01T01:35:32.380Z,12.50
2022-10-01T01:38:07.354Z,12.50
2022-10-01T01:40:40.582Z,12.50
2022-10-01T01:43:19.686Z,12.40
2022-10-01T01:45:55.289Z,12.40
2022-10-01T01:48:26.857Z,12.40
2022-10-01T01:51:00.840Z,12.40
2022-10-01T01:53:32.608Z,12.40
2022-10-01T01:56:03.329Z,12.40
2022-10-01T01:58:36.782Z,12.40
2022-10-01T02:01:10.173Z,12.40
2022-10-01T02:03:40.644Z,12.40
2022-10-01T02:06:22.342Z,12.50
2022-10-01T02:09:01.734Z,12.00
2022-10-01T02:11:38.321Z,12.50
2022-10-01T02:14:17.045Z,12.50
2022-10-01T02:17:01.764Z,12.50
2022-10-01T02:22:09.910Z,12.60
2022-10-01T02:24:43.662Z,12.60
2022-10-01T02:27:20.833Z,12.60
2022-10-01T02:29:53.639Z,12.70
2022-10-01T02:32:27.048Z,12.70
2022-10-01T02:34:57.997Z,12.80
2022-10-01T02:37:30.654Z,12.80
2022-10-01T02:42:34.030Z,12.80
2022-10-01T02:45:07.711Z,12.80
2022-10-01T02:47:46.093Z,12.90
2022-10-01T02:50:17.287Z,12.90
2022-10-01T02:52:53.197Z,13.00
2022-10-01T02:55:28.857Z,13.00
2022-10-01T02:57:56.891Z,13.00
2022-10-01T03:00:28.827Z,13.00
2022-10-01T03:03:01.768Z,13.00
2022-10-01T03:05:31.963Z,13.10
2022-10-01T03:08:02.354Z,13.10
2022-10-01T03:10:32.495Z,13.10
2022-10-01T03:13:02.700Z,13.10
2022-10-01T03:15:33.223Z,13.10
2022-10-01T03:18:06.083Z,13.10
2022-10-01T03:20:36.440Z,13.20
2022-10-01T03:23:06.643Z,13.10
2022-10-01T03:25:36.757Z,13.20
2022-10-01T03:28:06.919Z,13.20
2022-10-01T03:30:37.190Z,13.20
2022-10-01T03:33:10.065Z,13.10
2022-10-01T03:35:40.499Z,13.20
2022-10-01T03:38:10.823Z,13.20
2022-10-01T03:40:41.235Z,13.20
2022-10-01T03:43:12.490Z,13.30
2022-10-01T03:48:15.799Z,13.30
2022-10-01T03:50:45.810Z,13.30
2022-10-01T03:53:16.330Z,13.30
2022-10-01T03:55:46.404Z,13.40
2022-10-01T03:58:16.855Z,13.40
2022-10-01T04:00:47.276Z,13.40
2022-10-01T04:03:20.522Z,13.40
2022-10-01T04:05:50.710Z,13.40
2022-10-01T04:08:24.184Z,13.50
2022-10-01T04:10:54.889Z,13.50
2022-10-01T04:13:25.034Z,13.60
2022-10-01T04:15:55.228Z,13.60
2022-10-01T04:18:28.060Z,13.60
2022-10-01T04:20:58.281Z,13.60
2022-10-01T04:23:29.009Z,13.60
2022-10-01T04:26:02.749Z,13.60
2022-10-01T04:28:33.510Z,13.70
2022-10-01T04:31:15.999Z,13.70
2022-10-01T04:33:48.889Z,13.70
2022-10-01T04:36:19.495Z,13.80
2022-10-01T04:38:49.791Z,13.80
2022-10-01T04:41:19.888Z,13.80
2022-10-01T04:43:50.348Z,13.80
2022-10-01T04:46:20.487Z,13.80
2022-10-01T04:48:53.719Z,13.90
2022-10-01T04:51:23.705Z,13.90
2022-10-01T04:53:53.693Z,13.90
2022-10-01T04:56:23.688Z,14.00
2022-10-01T04:58:53.770Z,14.00
2022-10-01T05:01:23.912Z,14.00
2022-10-01T05:03:56.617Z,14.00
2022-10-01T05:06:26.712Z,14.10
2022-10-01T05:08:56.857Z,14.10
2022-10-01T05:11:26.917Z,14.10
2022-10-01T05:13:57.088Z,14.20
2022-10-01T05:16:27.217Z,14.20
2022-10-01T05:19:00.282Z,14.20
2022-10-01T05:21:30.558Z,14.30
2022-10-01T05:24:00.758Z,14.30
2022-10-01T05:26:32.165Z,14.30
2022-10-01T05:29:04.445Z,14.30
2022-10-01T05:31:36.890Z,14.30
2022-10-01T05:34:09.909Z,14.30
2022-10-01T05:36:40.315Z,14.30
2022-10-01T05:39:10.507Z,14.40
2022-10-01T05:41:41.217Z,14.40
2022-10-01T05:44:11.380Z,14.40
2022-10-01T05:49:15.460Z,14.40
2022-10-01T05:51:45.458Z,14.40
2022-10-01T05:54:19.657Z,14.40
2022-10-01T05:56:49.669Z,14.40
2022-10-01T05:59:19.797Z,14.50
2022-10-01T06:01:49.881Z,14.50
2022-10-01T06:04:22.647Z,14.50
2022-10-01T06:06:52.666Z,14.50
2022-10-01T06:09:22.798Z,14.50
2022-10-01T06:11:52.806Z,14.50
2022-10-01T06:14:22.874Z,14.50
2022-10-01T06:16:56.952Z,14.50
2022-10-01T06:19:29.996Z,14.50
2022-10-01T06:21:59.993Z,14.50
2022-10-01T06:24:30.382Z,14.60
2022-10-01T06:27:00.490Z,14.60
2022-10-01T06:29:30.508Z,14.60
2022-10-01T06:32:00.655Z,14.70
2022-10-01T06:34:33.320Z,14.60
2022-10-01T06:37:03.388Z,14.70
2022-10-01T06:39:33.640Z,14.70
2022-10-01T06:42:03.749Z,14.70
2022-10-01T06:44:33.812Z,14.70
2022-10-01T06:47:03.868Z,14.70
2022-10-01T06:49:37.129Z,14.60
2022-10-01T06:52:19.553Z,14.60
2022-10-01T06:54:49.981Z,14.50
2022-10-01T06:57:20.024Z,14.50
2022-10-01T06:59:50.212Z,14.50
2022-10-01T07:02:29.039Z,14.50
2022-10-01T07:05:02.589Z,14.50
2022-10-01T07:07:33.821Z,14.60
2022-10-01T07:10:04.506Z,14.60
2022-10-01T07:12:36.099Z,14.60
2022-10-01T07:15:07.178Z,14.60
2022-10-01T07:17:37.613Z,14.60
2022-10-01T07:20:11.442Z,14.70
2022-10-01T07:22:41.600Z,14.70
2022-10-01T07:25:13.505Z,14.70
2022-10-01T07:27:44.073Z,14.70
2022-10-01T07:30:14.876Z,14.80
2022-10-01T07:32:47.596Z,14.90
2022-10-01T07:35:20.559Z,14.90
2022-10-01T07:37:50.981Z,15.00
2022-10-01T07:40:24.348Z,15.30
2022-10-01T07:42:58.933Z,15.50
2022-10-01T07:45:29.440Z,15.70
2022-10-01T07:48:01.955Z,15.90
2022-10-01T07:50:34.648Z,16.10
2022-10-01T07:53:04.803Z,17.00
2022-10-01T07:55:34.989Z,16.60
2022-10-01T07:58:05.035Z,16.80
2022-10-01T08:00:37.089Z,16.80
2022-10-01T08:03:07.728Z,17.00
2022-10-01T08:05:43.542Z,17.50
2022-10-01T08:08:13.529Z,18.10
2022-10-01T08:10:43.532Z,18.40
2022-10-01T08:13:17.147Z,19.10
2022-10-01T08:15:50.660Z,19.80
2022-10-01T08:18:20.657Z,19.90
2022-10-01T08:20:53.417Z,19.90
2022-10-01T08:23:23.453Z,19.90
2022-10-01T08:25:53.465Z,19.10
2022-10-01T08:28:23.465Z,18.40
2022-10-01T08:30:53.494Z,17.80
2022-10-01T08:33:23.396Z,17.50
2022-10-01T08:35:55.939Z,17.30
2022-10-01T08:38:25.882Z,17.00
2022-10-01T08:40:55.947Z,16.80
2022-10-01T08:43:33.325Z,16.70
2022-10-01T08:46:05.949Z,16.50
2022-10-01T08:48:57.347Z,16.50
2022-10-01T08:51:36.062Z,16.60
2022-10-01T08:54:11.524Z,17.10
2022-10-01T08:56:45.389Z,17.70
2022-10-01T08:59:28.913Z,17.30
2022-10-01T09:01:59.433Z,17.30
2022-10-01T09:04:30.890Z,17.20
2022-10-01T09:07:12.677Z,17.00
2022-10-01T09:09:48.319Z,16.90
2022-10-01T09:12:28.491Z,16.80
2022-10-01T09:15:12.016Z,16.70
2022-10-01T09:18:01.189Z,16.60
2022-10-01T09:20:38.152Z,16.60
2022-10-01T09:23:26.986Z,16.50
2022-10-01T09:25:57.450Z,16.40
2022-10-01T09:28:31.638Z,16.70
2022-10-01T09:31:06.792Z,16.70
2022-10-01T09:33:40.060Z,16.70
2022-10-01T09:36:17.999Z,16.70
2022-10-01T09:38:55.541Z,16.80
2022-10-01T09:41:25.787Z,16.70
2022-10-01T09:43:56.019Z,16.70
2022-10-01T09:46:27.158Z,18.50
2022-10-01T09:49:03.192Z,18.70
2022-10-01T09:51:40.676Z,20.20
2022-10-01T09:54:19.415Z,21.80
2022-10-01T09:56:53.986Z,23.20
2022-10-01T09:59:29.941Z,24.30
2022-10-01T10:02:04.046Z,24.30
2022-10-01T10:04:34.599Z,23.80
2022-10-01T10:07:07.851Z,23.00
2022-10-01T10:09:41.619Z,22.80
2022-10-01T10:12:28.214Z,22.40
2022-10-01T10:14:59.597Z,22.50
2022-10-01T10:17:30.456Z,23.00
2022-10-01T10:20:01.162Z,24.70
2022-10-01T10:22:31.639Z,25.70
2022-10-01T10:25:15.783Z,26.10
2022-10-01T10:27:55.625Z,26.40
2022-10-01T10:30:27.202Z,26.40
2022-10-01T10:33:06.021Z,26.00
2022-10-01T10:35:36.621Z,25.80
2022-10-01T10:38:06.914Z,26.10
2022-10-01T10:40:45.962Z,26.20
2022-10-01T10:43:22.889Z,25.70
2022-10-01T10:45:56.962Z,24.80
2022-10-01T10:48:31.829Z,23.70
2022-10-01T10:51:04.432Z,22.60
2022-10-01T10:53:44.678Z,21.80
2022-10-01T10:56:24.840Z,21.10
2022-10-01T10:58:55.527Z,20.80
2022-10-01T11:01:31.763Z,20.50
2022-10-01T11:04:04.094Z,20.30
2022-10-01T11:06:34.431Z,20.00
2022-10-01T11:09:07.313Z,20.00
2022-10-01T11:11:55.171Z,20.10
2022-10-01T11:14:35.618Z,20.20
2022-10-01T11:17:28.729Z,20.20
2022-10-01T11:20:11.999Z,20.40
2022-10-01T11:22:55.299Z,20.40
2022-10-01T11:25:45.766Z,20.30
2022-10-01T11:28:31.052Z,20.20
2022-10-01T11:31:07.533Z,20.20
2022-10-01T11:33:47.560Z,20.20
2022-10-01T11:36:25.653Z,20.30
2022-10-01T11:39:01.659Z,20.40
2022-10-01T11:41:37.075Z,20.40
2022-10-01T11:44:15.875Z,20.20
2022-10-01T11:46:59.227Z,19.90
2022-10-01T11:49:45.439Z,19.80
2022-10-01T11:52:29.201Z,19.80
2022-10-01T11:55:19.553Z,19.80
2022-10-01T11:58:06.281Z,19.70
2022-10-01T12:00:42.077Z,19.80
2022-10-01T12:03:19.618Z,19.90
2022-10-01T12:05:49.930Z,19.90
2022-10-01T12:08:26.630Z,20.00
2022-10-01T12:11:02.707Z,20.10
2022-10-01T12:13:36.798Z,20.10
2022-10-01T12:16:17.349Z,20.10
2022-10-01T12:18:54.360Z,20.20
2022-10-01T12:21:28.971Z,20.20
2022-10-01T12:24:04.350Z,19.90
2022-10-01T12:26:46.159Z,19.80
2022-10-01T12:29:21.420Z,19.80
2022-10-01T12:32:04.133Z,19.90
2022-10-01T12:34:45.369Z,19.90
2022-10-01T12:37:23.124Z,19.90
2022-10-01T12:40:06.555Z,19.90
2022-10-01T12:42:53.276Z,19.90
2022-10-01T12:45:33.121Z,19.90
2022-10-01T12:48:11.514Z,19.80
2022-10-01T12:50:51.862Z,19.80
2022-10-01T12:53:29.700Z,19.90
2022-10-01T12:56:18.729Z,19.80
2022-10-01T12:59:22.878Z,19.80
2022-10-01T13:02:05.174Z,19.70
2022-10-01T13:05:07.630Z,19.70
2022-10-01T13:08:01.114Z,19.70
2022-10-01T13:10:49.745Z,19.70
2022-10-01T13:13:24.563Z,19.70
2022-10-01T13:16:02.616Z,19.70
2022-10-01T13:18:42.577Z,19.70
2022-10-01T13:21:21.318Z,19.70
2022-10-01T13:23:58.830Z,19.80
2022-10-01T13:26:34.990Z,19.80
2022-10-01T13:29:14.544Z,19.90
2022-10-01T13:31:57.939Z,19.90
2022-10-01T13:34:37.765Z,20.00
2022-10-01T13:37:19.271Z,20.00
2022-10-01T13:39:49.827Z,20.00
2022-10-01T13:42:23.099Z,20.00
2022-10-01T13:44:58.083Z,20.00
2022-10-01T13:47:29.363Z,20.10
2022-10-01T13:50:05.731Z,20.20
2022-10-01T13:52:38.315Z,20.20
2022-10-01T13:55:08.764Z,20.10
2022-10-01T13:57:40.624Z,20.00
2022-10-01T14:00:26.082Z,19.80
2022-10-01T14:03:09.121Z,19.70
2022-10-01T14:05:42.420Z,19.60
2022-10-01T14:08:30.143Z,19.50
2022-10-01T14:11:18.165Z,19.50
2022-10-01T14:14:03.467Z,19.50
2022-10-01T14:16:34.307Z,19.50
2022-10-01T14:19:04.665Z,19.50
2022-10-01T14:21:58.282Z,19.40
2022-10-01T14:24:35.542Z,19.30
2022-10-01T14:27:16.436Z,19.30
2022-10-01T14:30:01.379Z,19.30
2022-10-01T14:32:41.343Z,19.40
2022-10-01T14:35:34.225Z,19.50
2022-10-01T14:38:06.919Z,19.50
2022-10-01T14:40:45.037Z,19.50
2022-10-01T14:43:20.882Z,19.50
2022-10-01T14:45:55.980Z,19.60
2022-10-01T14:48:27.085Z,19.60
2022-10-01T14:50:59.056Z,19.60
2022-10-01T14:53:31.071Z,19.50
2022-10-01T14:56:08.466Z,19.50
2022-10-01T14:58:42.243Z,19.50
2022-10-01T15:01:20.987Z,19.40
2022-10-01T15:03:52.632Z,19.30
2022-10-01T15:06:24.786Z,19.20
2022-10-01T15:08:56.406Z,19.00
2022-10-01T15:11:31.582Z,19.00
2022-10-01T15:14:09.348Z,19.00
2022-10-01T15:16:40.279Z,18.90
2022-10-01T15:19:13.683Z,18.90
2022-10-01T15:21:48.427Z,18.80
2022-10-01T15:24:25.101Z,18.80
2022-10-01T15:26:59.940Z,18.80
2022-10-01T15:29:30.290Z,18.80
2022-10-01T15:32:03.088Z,18.70
2022-10-01T15:34:33.614Z,18.70
2022-10-01T15:37:03.887Z,18.60
2022-10-01T15:39:36.841Z,18.60
2022-10-01T15:42:12.165Z,18.40
2022-10-01T15:44:49.396Z,18.50
2022-10-01T15:47:29.401Z,18.40
2022-10-01T15:50:08.523Z,18.40
2022-10-01T15:52:55.647Z,18.40
2022-10-01T15:55:32.105Z,18.40
2022-10-01T15:58:11.711Z,18.30
2022-10-01T16:00:56.994Z,18.40
2022-10-01T16:03:31.247Z,18.30
2022-10-01T16:06:03.139Z,18.30
2022-10-01T16:08:37.035Z,18.30
2022-10-01T16:11:32.020Z,18.20
2022-10-01T16:14:31.081Z,18.20
2022-10-01T16:17:28.185Z,18.10
2022-10-01T16:20:00.025Z,18.20
2022-10-01T16:22:32.909Z,18.30
2022-10-01T16:25:07.161Z,18.30
2022-10-01T16:27:46.693Z,18.30
2022-10-01T16:30:23.813Z,18.20
2022-10-01T16:32:53.835Z,18.20
2022-10-01T16:35:25.786Z,18.20
2022-10-01T16:37:57.538Z,18.30
2022-10-01T16:40:29.839Z,18.20
2022-10-01T16:43:01.773Z,18.20
2022-10-01T16:45:40.368Z,18.20
2022-10-01T16:48:16.830Z,18.20
2022-10-01T16:50:48.432Z,18.20
2022-10-01T16:53:20.374Z,18.20
2022-10-01T16:55:50.375Z,18.10
2022-10-01T16:58:21.866Z,18.10
2022-10-01T17:00:54.703Z,18.00
2022-10-01T17:03:27.019Z,18.00
2022-10-01T17:05:57.046Z,18.00
2022-10-01T17:08:26.972Z,18.00
2022-10-01T17:11:00.170Z,17.90
2022-10-01T17:13:31.512Z,17.90
2022-10-01T17:16:05.019Z,17.80
2022-10-01T17:18:35.265Z,17.70
2022-10-01T17:21:06.271Z,17.70
2022-10-01T17:23:37.195Z,17.70
2022-10-01T17:26:08.672Z,17.70
2022-10-01T17:28:39.326Z,17.60
2022-10-01T17:31:16.951Z,17.60
2022-10-01T17:33:48.017Z,17.70
2022-10-01T17:36:18.004Z,17.70
2022-10-01T17:38:48.209Z,17.70
2022-10-01T17:41:18.136Z,17.70
2022-10-01T17:43:48.106Z,17.80
2022-10-01T17:46:20.672Z,17.70
2022-10-01T17:48:52.047Z,17.70
2022-10-01T17:51:21.966Z,17.70
2022-10-01T17:53:51.955Z,17.70
2022-10-01T17:56:22.447Z,17.50
2022-10-01T17:58:52.509Z,17.60
2022-10-01T18:01:25.083Z,17.60
2022-10-01T18:04:00.427Z,17.60
2022-10-01T18:06:31.059Z,17.50
2022-10-01T18:09:01.076Z,17.60
2022-10-01T18:11:31.840Z,17.50
2022-10-01T18:14:02.206Z,17.60
2022-10-01T18:16:35.393Z,17.60
2022-10-01T18:19:52.405Z,17.60
2022-10-01T18:21:56.135Z,17.60
2022-10-01T18:24:26.553Z,17.50
2022-10-01T18:26:56.716Z,17.50
2022-10-01T18:29:28.414Z,17.50
2022-10-01T18:32:05.117Z,17.50
2022-10-01T18:34:40.327Z,17.50
2022-10-01T18:37:18.952Z,17.50
2022-10-01T18:39:55.574Z,17.50
2022-10-01T18:42:31.681Z,17.40
2022-10-01T18:45:04.800Z,17.40
2022-10-01T18:47:51.764Z,17.40
2022-10-01T18:50:36.346Z,17.40
2022-10-01T18:53:19.653Z,17.40
2022-10-01T18:56:16.107Z,17.30
2022-10-01T18:59:03.585Z,17.30
2022-10-01T19:01:43.549Z,17.30
2022-10-01T19:04:39.448Z,17.30
2022-10-01T19:07:25.215Z,17.30
2022-10-01T19:10:05.737Z,17.20
2022-10-01T19:12:57.469Z,17.10
2022-10-01T19:15:39.155Z,17.10
2022-10-01T19:18:32.213Z,17.10
2022-10-01T19:21:16.188Z,17.00
2022-10-01T19:24:14.599Z,17.00
2022-10-01T19:26:50.349Z,17.00
2022-10-01T19:29:38.336Z,17.00
2022-10-01T19:32:15.504Z,16.90
2022-10-01T19:34:52.205Z,16.90
2022-10-01T19:37:32.904Z,16.90
2022-10-01T19:40:09.661Z,16.90
2022-10-01T19:42:43.133Z,16.90
2022-10-01T19:45:21.530Z,16.90
2022-10-01T19:48:00.634Z,16.80
2022-10-01T19:50:34.413Z,16.80
2022-10-01T19:53:21.759Z,16.80
2022-10-01T19:55:55.241Z,16.90
2022-10-01T19:58:25.352Z,16.90
2022-10-01T20:00:59.153Z,16.90
2022-10-01T20:03:37.245Z,16.90
2022-10-01T20:06:12.656Z,16.80
2022-10-01T20:08:52.939Z,16.80
2022-10-01T20:11:30.943Z,16.80
2022-10-01T20:14:38.723Z,16.80
2022-10-01T20:17:19.305Z,16.80
2022-10-01T20:19:57.956Z,16.70
2022-10-01T20:22:36.656Z,16.70
2022-10-01T20:25:17.233Z,16.70
2022-10-01T20:27:58.322Z,16.70
2022-10-01T20:30:32.988Z,16.70
2022-10-01T20:33:11.860Z,16.70
2022-10-01T20:35:51.715Z,16.60
2022-10-01T20:38:25.234Z,16.60
2022-10-01T20:41:00.825Z,16.60
2022-10-01T20:43:37.540Z,16.60
2022-10-01T20:46:13.423Z,16.50
2022-10-01T20:48:47.485Z,16.50
2022-10-01T20:51:22.775Z,16.50
2022-10-01T20:53:56.871Z,16.50
2022-10-01T20:56:35.257Z,16.40
2022-10-01T20:59:14.425Z,16.50
2022-10-01T21:02:02.576Z,16.40
2022-10-01T21:04:37.798Z,16.40
2022-10-01T21:07:15.764Z,16.40
2022-10-01T21:09:51.710Z,16.30
2022-10-01T21:12:26.951Z,16.30
2022-10-01T21:14:58.657Z,16.30
2022-10-01T21:17:42.801Z,16.20
2022-10-01T21:20:31.310Z,16.20
2022-10-01T21:23:15.273Z,16.20
2022-10-01T21:25:49.136Z,16.20
2022-10-01T21:28:34.849Z,16.20
2022-10-01T21:31:18.261Z,16.20
2022-10-01T21:33:54.721Z,16.20
2022-10-01T21:36:34.206Z,16.20
2022-10-01T21:39:13.045Z,16.60
2022-10-01T21:42:01.882Z,16.20
2022-10-01T21:45:08.397Z,16.20
2022-10-01T21:48:03.852Z,16.20
2022-10-01T21:50:43.394Z,16.20
2022-10-01T21:53:52.618Z,16.20
2022-10-01T21:56:37.659Z,16.10
2022-10-01T21:59:15.440Z,16.10
2022-10-01T22:02:05.091Z,16.10
2022-10-01T22:04:41.998Z,16.20
2022-10-01T22:07:18.136Z,16.10
2022-10-01T22:10:03.265Z,16.10
2022-10-01T22:12:37.041Z,16.10
2022-10-01T22:15:20.843Z,18.60
2022-10-01T22:17:56.595Z,16.10
2022-10-01T22:20:31.835Z,16.10
2022-10-01T22:23:04.284Z,16.10
2022-10-01T22:25:37.167Z,16.10
2022-10-01T22:28:12.110Z,16.10
2022-10-01T22:30:44.829Z,16.20
2022-10-01T22:33:22.984Z,16.10
2022-10-01T22:35:57.127Z,16.10
2022-10-01T22:38:33.198Z,16.10
2022-10-01T22:41:10.380Z,16.10
2022-10-01T22:43:40.834Z,16.10
2022-10-01T22:46:45.596Z,16.10
2022-10-01T22:49:31.236Z,16.10
2022-10-01T22:52:11.535Z,16.20
2022-10-01T22:54:56.432Z,16.10
2022-10-01T22:57:41.930Z,16.10
2022-10-01T23:00:14.777Z,16.20
2022-10-01T23:02:50.836Z,16.20
2022-10-01T23:05:39.548Z,16.20
2022-10-01T23:08:19.686Z,16.20
2022-10-01T23:10:57.695Z,16.20
2022-10-01T23:13:36.239Z,16.20
2022-10-01T23:16:14.055Z,16.20
2022-10-01T23:18:55.425Z,16.20
2022-10-01T23:21:38.086Z,16.10
2022-10-01T23:24:19.368Z,16.30
2022-10-01T23:26:57.648Z,16.20
2022-10-01T23:29:51.338Z,16.20
2022-10-01T23:32:39.768Z,16.20
2022-10-01T23:35:16.618Z,16.20
2022-10-01T23:38:16.446Z,16.20
2022-10-01T23:40:51.981Z,16.30
2022-10-01T23:43:28.667Z,16.30
2022-10-01T23:46:03.145Z,16.30
2022-10-01T23:48:39.705Z,16.30
2022-10-01T23:51:14.947Z,16.30
2022-10-01T23:53:53.754Z,16.20
2022-10-01T23:56:40.775Z,16.20
2022-10-01T23:59:18.699Z,16.30
